Radar AviationWeather DUATS TFRs Wunderground Accuweather Weather.com

alt : Radar

TAFs

KFWA 271353Z 2714/2812 21003KT 6SM BR VCSH SCT006 OVC060
     TEMPO 2714/2716 BKN006
   FM271700 12005KT P6SM VCTS BKN035CB
   FM280000 07004KT P6SM VCSH BKN100
   FM280300 07004KT P6SM BKN070
KTOL 271224Z 2712/2812 00000KT P6SM SCT025 BKN100
     TEMPO 2712/2714 BKN025
   FM271800 09005KT P6SM VCTS BKN025CB BKN050
   FM272000 08005KT P6SM BKN035 BKN080
   FM280800 02008KT P6SM SCT035 BKN080
   FM281100 02008KT P6SM BKN015
KJXN 271140Z 2712/2812 VRB03KT P6SM BKN035
   FM271800 01008KT P6SM VCSH BKN040
   FM280000 04005KT P6SM BKN100
KFDY 271123Z 2712/2812 VRB04KT P6SM VCSH SCT025 OVC050
     TEMPO 2713/2715 5SM -SHRA SCT025 OVC040
   FM271500 VRB04KT P6SM VCSH BKN035 OVC050
   FM271900 VRB03KT P6SM VCTS BKN030CB OVC050
   FM272100 VRB03KT P6SM SCT025 BKN050
   FM280500 04007KT P6SM BKN040
KCLE 271123Z 2712/2818 20004KT P6SM BKN150
   FM271400 26005KT P6SM BKN090
   FM271700 33005KT P6SM SCT035 BKN090
   FM280000 03005KT P6SM BKN040
   FM280900 07005KT P6SM BKN035
   FM281300 06008KT P6SM BKN025
KDTW 271120Z 2712/2818 VRB03KT P6SM BKN150 BKN250
   FM271400 34005KT P6SM SCT045 BKN100
   FM271800 06007KT P6SM BKN050
   FM280000 04006KT P6SM SCT050
   FM280600 02004KT P6SM BKN060

METARs

KJXN 271356Z VRB03KT 10SM CLR 27/18 A2994 RMK AO2 SLP132 T02670183
KDUH 271355Z AUTO 00000KT 10SM BKN030 25/20 A2993 RMK AO2 T02460195
KFWA 271354Z 23007KT 5SM BR BKN007 OVC060 23/21 A2995 RMK AO2 SLP136 T02280211
KDTW 271353Z COR 00000KT 10SM BKN140 BKN230 24/19 A2994 RMK AO2 SLP135 T02440194 $
KFDY 271353Z AUTO 14007KT 10SM CLR 24/19 A2993 RMK AO2 SLP127 T02440194 TSNO
KTDZ 271353Z AUTO 00000KT 10SM SCT032 BKN110 24/20 A2994 RMK AO2 SLP134 T02440200
KTOL 271352Z 00000KT 10SM FEW033 SCT110 23/19 A2993 RMK AO2 RAB00E10 SLP132 P0000 T02280194
KCLE 271351Z 20005KT 10SM SCT180 BKN250 24/18 A2998 RMK AO2 SLP146 T02440183

alt : Satellite

alt : TFRs